createdAt,value
2023-04-11T00:02:17.025Z,62.30
2023-04-11T00:04:44.474Z,62.40
2023-04-11T00:07:11.762Z,62.40
2023-04-11T00:09:39.041Z,62.50
2023-04-11T00:12:06.655Z,62.80
2023-04-11T00:14:45.574Z,62.30
2023-04-11T00:17:12.813Z,62.00
2023-04-11T00:19:39.986Z,61.80
2023-04-11T00:22:09.508Z,62.00
2023-04-11T00:24:36.495Z,61.80
2023-04-11T00:27:03.617Z,61.90
2023-04-11T00:29:30.649Z,62.10
2023-04-11T00:31:58.055Z,62.40
2023-04-11T00:34:25.225Z,62.90
2023-04-11T00:37:21.664Z,63.30
2023-04-11T00:39:53.021Z,63.40
2023-04-11T00:42:23.484Z,63.60
2023-04-11T00:44:51.188Z,63.80
2023-04-11T00:47:18.897Z,64.30
2023-04-11T00:49:46.584Z,64.40
2023-04-11T00:52:16.884Z,64.90
2023-04-11T00:54:45.535Z,64.70
2023-04-11T00:57:13.181Z,64.60
2023-04-11T00:59:46.152Z,65.00
2023-04-11T01:02:17.847Z,65.40
2023-04-11T01:04:45.635Z,66.40
2023-04-11T01:07:14.776Z,68.90
2023-04-11T01:09:42.896Z,70.20
2023-04-11T01:12:11.758Z,72.30
2023-04-11T01:14:39.675Z,73.70
2023-04-11T01:17:08.017Z,73.40
2023-04-11T01:19:35.467Z,75.10
2023-04-11T01:22:04.424Z,76.50
2023-04-11T01:24:33.822Z,77.10
2023-04-11T01:27:02.279Z,77.30
2023-04-11T01:29:30.375Z,77.70
2023-04-11T01:31:57.437Z,78.20
2023-04-11T01:34:28.500Z,78.20
2023-04-11T01:36:55.934Z,78.10
2023-04-11T01:39:23.202Z,78.50
2023-04-11T01:41:50.913Z,79.20
2023-04-11T01:44:21.261Z,79.40
2023-04-11T01:46:48.552Z,79.10
2023-04-11T01:49:18.072Z,77.60
2023-04-11T01:51:48.140Z,76.70
2023-04-11T01:54:15.586Z,77.90
2023-04-11T01:56:42.758Z,78.70
2023-04-11T01:59:09.943Z,78.60
2023-04-11T02:01:37.172Z,79.10
2023-04-11T02:04:04.491Z,80.00
2023-04-11T02:06:34.595Z,80.30
2023-04-11T02:09:01.991Z,80.00
2023-04-11T02:11:31.299Z,80.50
2023-04-11T02:13:58.404Z,80.00
2023-04-11T02:16:26.060Z,80.60
2023-04-11T02:18:54.357Z,80.50
2023-04-11T02:21:22.266Z,80.70
2023-04-11T02:23:49.292Z,82.10
2023-04-11T02:26:16.390Z,82.70
2023-04-11T02:28:43.397Z,83.60
2023-04-11T02:31:10.592Z,83.70
2023-04-11T02:33:37.738Z,84.10
2023-04-11T02:36:05.629Z,84.90
2023-04-11T02:38:32.722Z,86.00
2023-04-11T02:41:00.290Z,87.40
2023-04-11T02:43:27.280Z,88.80
2023-04-11T02:46:02.063Z,90.40
2023-04-11T02:48:34.313Z,91.40
2023-04-11T02:51:01.247Z,92.80
2023-04-11T02:53:28.218Z,93.50
2023-04-11T02:55:55.389Z,94.30
2023-04-11T02:58:25.944Z,95.00
2023-04-11T03:00:56.313Z,95.10
2023-04-11T03:03:23.501Z,95.90
2023-04-11T03:05:50.664Z,96.30
2023-04-11T03:08:22.396Z,97.00
2023-04-11T03:10:52.800Z,97.30
2023-04-11T03:13:21.751Z,97.50
2023-04-11T03:15:48.776Z,98.20
2023-04-11T03:18:16.930Z,98.30
2023-04-11T03:20:47.104Z,98.50
2023-04-11T03:23:15.861Z,98.90
2023-04-11T03:25:44.726Z,99.10
2023-04-11T03:28:12.982Z,99.50
2023-04-11T03:30:42.568Z,99.90
2023-04-11T03:33:12.353Z,100.00
2023-04-11T03:35:40.215Z,100.00
2023-04-11T03:38:07.239Z,100.00
2023-04-11T03:40:34.211Z,100.00
2023-04-11T03:43:09.502Z,100.00
2023-04-11T03:45:37.379Z,100.00
2023-04-11T03:48:08.447Z,100.00
2023-04-11T03:50:47.281Z,100.00
2023-04-11T03:53:47.268Z,100.00
2023-04-11T03:56:23.073Z,100.00
2023-04-11T03:58:50.247Z,100.00
2023-04-11T04:01:20.228Z,100.00
2023-04-11T04:03:50.137Z,99.70
2023-04-11T04:06:17.408Z,99.70
2023-04-11T04:08:46.998Z,100.00
2023-04-11T04:11:14.411Z,99.70
2023-04-11T04:13:41.538Z,99.90
2023-04-11T04:16:14.673Z,100.00
2023-04-11T04:18:45.135Z,100.00
2023-04-11T04:21:12.292Z,100.00
2023-04-11T04:23:39.518Z,100.00
2023-04-11T04:26:42.105Z,100.00
2023-04-11T04:29:21.728Z,100.00
2023-04-11T04:31:53.040Z,100.00
2023-04-11T04:34:29.275Z,100.00
2023-04-11T04:36:59.721Z,100.00
2023-04-11T04:39:38.270Z,100.00
2023-04-11T04:42:07.325Z,100.00
2023-04-11T04:44:38.493Z,100.00
2023-04-11T04:47:13.361Z,100.00
2023-04-11T04:49:40.437Z,100.00
2023-04-11T04:52:07.454Z,100.00
2023-04-11T04:54:45.913Z,100.00
2023-04-11T04:57:13.062Z,100.00
2023-04-11T04:59:40.186Z,100.00
2023-04-11T05:02:11.738Z,100.00
2023-04-11T05:04:39.664Z,100.00
2023-04-11T05:07:06.761Z,100.00
2023-04-11T05:09:35.720Z,100.00
2023-04-11T05:12:16.124Z,100.00
2023-04-11T05:14:43.548Z,100.00
2023-04-11T05:17:10.761Z,100.00
2023-04-11T05:19:37.816Z,100.00
2023-04-11T05:22:05.411Z,100.00
2023-04-11T05:24:36.565Z,100.00
2023-04-11T05:27:07.185Z,100.00
2023-04-11T05:29:34.261Z,100.00
2023-04-11T05:32:06.772Z,100.00
2023-04-11T05:34:34.541Z,100.00
2023-04-11T05:37:01.845Z,100.00
2023-04-11T05:39:28.893Z,100.00
2023-04-11T05:41:57.252Z,100.00
2023-04-11T05:44:24.217Z,100.00
2023-04-11T05:46:51.204Z,100.00
2023-04-11T05:49:18.572Z,100.00
2023-04-11T05:51:45.771Z,100.00
2023-04-11T05:54:19.034Z,100.00
2023-04-11T06:09:20.706Z,100.00
2023-04-11T06:29:02.572Z,100.00
2023-04-11T06:31:54.856Z,100.00
2023-04-11T06:34:22.031Z,100.00
2023-04-11T06:36:49.983Z,100.00
2023-04-11T06:39:17.226Z,100.00
2023-04-11T06:41:44.453Z,100.00
2023-04-11T06:44:12.817Z,100.00
2023-04-11T06:46:39.910Z,99.80
2023-04-11T06:49:09.723Z,99.40
2023-04-11T06:51:36.827Z,99.40
2023-04-11T06:54:04.380Z,99.40
2023-04-11T06:56:31.343Z,99.20
2023-04-11T06:58:58.594Z,99.00
2023-04-11T07:01:26.222Z,99.60
2023-04-11T07:03:53.711Z,99.70
2023-04-11T07:06:20.883Z,99.70
2023-04-11T07:08:47.916Z,99.50
2023-04-11T07:11:14.934Z,99.50
2023-04-11T07:13:41.999Z,99.60
2023-04-11T07:16:09.522Z,99.50
2023-04-11T07:18:36.566Z,99.60
2023-04-11T07:21:03.650Z,100.00
2023-04-11T07:23:30.708Z,100.00
2023-04-11T07:25:57.851Z,100.00
2023-04-11T07:28:25.163Z,100.00
2023-04-11T07:30:52.523Z,100.00
2023-04-11T07:33:19.550Z,100.00
2023-04-11T07:35:46.532Z,100.00
2023-04-11T07:38:14.169Z,100.00
2023-04-11T07:40:41.133Z,100.00
2023-04-11T07:43:08.131Z,100.00
2023-04-11T07:45:36.536Z,100.00
2023-04-11T07:48:03.746Z,100.00
2023-04-11T07:50:30.785Z,100.00
2023-04-11T07:52:57.860Z,100.00
2023-04-11T07:55:24.839Z,100.00
2023-04-11T07:57:51.892Z,100.00
2023-04-11T08:00:20.895Z,100.00
2023-04-11T08:02:48.155Z,100.00
2023-04-11T08:05:15.623Z,100.00
2023-04-11T08:07:42.921Z,100.00
2023-04-11T08:10:10.327Z,100.00
2023-04-11T08:12:37.570Z,100.00
2023-04-11T08:15:05.065Z,100.00
2023-04-11T08:17:37.972Z,100.00
2023-04-11T08:20:09.136Z,100.00
2023-04-11T08:22:36.527Z,100.00
2023-04-11T08:25:03.874Z,100.00
2023-04-11T08:27:30.916Z,100.00
2023-04-11T08:29:59.195Z,100.00
2023-04-11T08:32:26.501Z,95.40
2023-04-11T08:34:53.530Z,97.60
2023-04-11T08:37:20.607Z,99.10
2023-04-11T08:39:47.632Z,96.70
2023-04-11T08:42:30.601Z,97.20
2023-04-11T08:45:03.123Z,94.70
2023-04-11T08:47:30.409Z,95.10
2023-04-11T08:49:57.453Z,93.70
2023-04-11T08:52:25.646Z,92.00
2023-04-11T08:54:55.171Z,92.80
2023-04-11T08:57:27.722Z,92.80
2023-04-11T09:02:23.700Z,89.80
2023-04-11T09:04:51.691Z,88.00
2023-04-11T09:07:19.315Z,88.30
2023-04-11T09:09:46.565Z,87.00
2023-04-11T09:12:13.818Z,85.30
2023-04-11T09:14:41.212Z,85.80
2023-04-11T09:17:17.002Z,82.70
2023-04-11T09:19:45.127Z,81.70
2023-04-11T09:22:15.660Z,83.20
2023-04-11T09:24:43.053Z,84.90
2023-04-11T09:27:13.845Z,83.50
2023-04-11T09:29:48.316Z,82.50
2023-04-11T09:32:33.335Z,82.10
2023-04-11T09:35:28.504Z,85.50
2023-04-11T09:37:57.647Z,84.30
2023-04-11T09:40:31.819Z,83.50
2023-04-11T09:43:01.650Z,81.00
2023-04-11T09:45:32.219Z,78.70
2023-04-11T09:48:03.827Z,80.00
2023-04-11T09:50:31.912Z,79.40
2023-04-11T09:52:59.431Z,76.40
2023-04-11T09:55:27.052Z,74.10
2023-04-11T09:57:55.129Z,74.60
2023-04-11T10:00:32.252Z,73.40
2023-04-11T10:02:59.461Z,74.60
2023-04-11T10:05:28.848Z,71.30
2023-04-11T10:08:09.002Z,72.30
2023-04-11T10:10:36.582Z,70.90
2023-04-11T10:13:24.037Z,66.60
2023-04-11T10:16:10.174Z,68.80
2023-04-11T10:18:38.669Z,70.50
2023-04-11T10:21:35.113Z,68.00
2023-04-11T10:24:26.299Z,66.30
2023-04-11T10:27:00.745Z,65.70
2023-04-11T10:29:33.871Z,67.40
2023-04-11T10:32:11.199Z,72.10
2023-04-11T10:34:50.839Z,76.40
2023-04-11T10:37:19.300Z,77.40
2023-04-11T10:39:55.376Z,76.60
2023-04-11T10:42:28.558Z,73.90
2023-04-11T10:45:27.438Z,76.20
2023-04-11T10:47:57.564Z,77.50
2023-04-11T10:50:27.711Z,80.50
2023-04-11T10:52:59.315Z,78.40
2023-04-11T10:55:28.076Z,76.30
2023-04-11T10:58:10.152Z,73.70
2023-04-11T11:00:55.683Z,72.50
2023-04-11T11:03:31.740Z,71.60
2023-04-11T11:06:07.361Z,69.30
2023-04-11T11:08:46.932Z,70.10
2023-04-11T11:11:16.094Z,69.60
2023-04-11T11:13:52.710Z,67.00
2023-04-11T11:16:26.783Z,64.40
2023-04-11T11:18:55.703Z,65.50
2023-04-11T11:21:27.775Z,61.90
2023-04-11T11:24:00.174Z,62.00
2023-04-11T11:26:37.298Z,63.20
2023-04-11T11:29:05.878Z,64.30
2023-04-11T11:31:39.342Z,64.50
2023-04-11T11:34:22.255Z,62.50
2023-04-11T11:36:51.260Z,61.20
2023-04-11T11:39:20.409Z,61.70
2023-04-11T11:41:48.709Z,61.60
2023-04-11T11:44:24.046Z,62.40
2023-04-11T11:47:12.732Z,64.80
2023-04-11T11:49:54.272Z,66.20
2023-04-11T11:52:37.774Z,64.10
2023-04-11T11:55:11.416Z,63.90
2023-04-11T11:57:45.520Z,63.30
2023-04-11T12:00:14.017Z,66.40
2023-04-11T12:02:43.179Z,64.00
2023-04-11T12:05:13.780Z,63.90
2023-04-11T12:07:41.025Z,62.80
2023-04-11T12:10:13.526Z,65.20
2023-04-11T12:12:53.326Z,63.10
2023-04-11T12:15:26.613Z,60.30
2023-04-11T12:17:55.119Z,59.70
2023-04-11T12:20:26.904Z,61.10
2023-04-11T12:22:55.306Z,63.20
2023-04-11T12:25:23.094Z,60.50
2023-04-11T12:27:50.364Z,58.80
2023-04-11T12:30:17.556Z,60.70
2023-04-11T12:32:45.385Z,60.50
2023-04-11T12:35:13.070Z,60.50
2023-04-11T12:37:40.540Z,57.20
2023-04-11T12:40:12.619Z,56.00
2023-04-11T12:42:49.084Z,56.00
2023-04-11T12:45:22.971Z,54.40
2023-04-11T12:47:50.150Z,54.90
2023-04-11T12:50:17.224Z,54.90
2023-04-11T12:52:44.268Z,56.20
2023-04-11T12:55:13.861Z,56.40
2023-04-11T12:57:41.675Z,57.80
2023-04-11T13:00:11.455Z,58.90
2023-04-11T13:02:43.945Z,61.70
2023-04-11T13:05:15.365Z,61.40
2023-04-11T13:07:44.833Z,61.40
2023-04-11T13:10:14.014Z,61.00
2023-04-11T13:12:44.537Z,62.00
2023-04-11T13:15:14.105Z,63.70
2023-04-11T13:17:41.144Z,64.60
2023-04-11T13:20:12.949Z,67.00
2023-04-11T13:22:41.966Z,67.60
2023-04-11T13:25:10.352Z,68.30
2023-04-11T13:27:39.467Z,69.90
2023-04-11T13:30:07.822Z,68.70
2023-04-11T13:32:34.851Z,66.90
2023-04-11T13:35:02.254Z,67.20
2023-04-11T13:37:29.383Z,65.30
2023-04-11T13:39:56.431Z,65.50
2023-04-11T13:42:23.416Z,63.70
2023-04-11T13:44:50.371Z,60.90
2023-04-11T13:47:17.322Z,56.10
2023-04-11T13:49:44.812Z,56.40
2023-04-11T13:52:11.767Z,57.90
2023-04-11T13:54:39.161Z,58.00
2023-04-11T13:57:09.412Z,56.90
2023-04-11T13:59:36.687Z,57.30
2023-04-11T14:02:03.865Z,58.80
2023-04-11T14:04:31.080Z,58.90
2023-04-11T14:06:58.187Z,60.80
2023-04-11T14:09:25.254Z,57.90
2023-04-11T14:11:52.198Z,56.70
2023-04-11T14:14:19.209Z,55.60
2023-04-11T14:16:46.219Z,55.70
2023-04-11T14:19:13.288Z,57.80
2023-04-11T14:21:40.339Z,57.60
2023-04-11T14:24:07.560Z,56.10
2023-04-11T14:26:34.597Z,56.60
2023-04-11T14:29:02.900Z,53.60
2023-04-11T14:31:30.418Z,52.30
2023-04-11T14:33:57.812Z,51.90
2023-04-11T14:36:24.983Z,51.10
2023-04-11T14:38:52.008Z,52.00
2023-04-11T14:41:19.465Z,53.20
2023-04-11T14:43:46.560Z,51.80
2023-04-11T14:46:14.741Z,50.90
2023-04-11T14:48:41.795Z,52.30
2023-04-11T14:51:08.829Z,53.00
2023-04-11T14:53:35.982Z,51.50
2023-04-11T14:56:06.560Z,52.70
2023-04-11T14:58:34.225Z,53.80
2023-04-11T15:01:01.423Z,52.80
2023-04-11T15:03:28.712Z,50.80
2023-04-11T15:05:55.942Z,51.40
2023-04-11T15:08:22.987Z,50.70
2023-04-11T15:10:54.068Z,51.70
2023-04-11T15:13:26.998Z,51.60
2023-04-11T15:15:54.448Z,52.60
2023-04-11T15:18:26.979Z,51.40
2023-04-11T15:20:55.426Z,50.30
2023-04-11T15:23:22.873Z,51.70
2023-04-11T15:25:54.345Z,50.60
2023-04-11T15:28:22.147Z,50.10
2023-04-11T15:30:51.029Z,50.50
2023-04-11T15:33:19.121Z,51.00
2023-04-11T15:35:46.448Z,53.10
2023-04-11T15:38:14.377Z,53.40
2023-04-11T15:40:41.375Z,51.50
2023-04-11T15:43:11.225Z,53.30
2023-04-11T15:45:39.596Z,51.30
2023-04-11T15:48:06.942Z,53.40
2023-04-11T15:50:34.107Z,53.60
2023-04-11T15:53:01.157Z,53.20
2023-04-11T15:55:28.780Z,55.20
2023-04-11T15:57:56.648Z,56.30
2023-04-11T16:00:23.752Z,55.40
2023-04-11T16:02:51.357Z,52.50
2023-04-11T16:05:20.994Z,51.90
2023-04-11T16:07:48.208Z,51.90
2023-04-11T16:10:15.520Z,52.50
2023-04-11T16:12:42.620Z,52.80
2023-04-11T16:15:09.829Z,53.40
2023-04-11T16:17:36.865Z,53.00
2023-04-11T16:20:08.825Z,51.70
2023-04-11T16:22:37.630Z,52.20
2023-04-11T16:25:06.072Z,52.90
2023-04-11T16:27:33.255Z,54.70
2023-04-11T16:30:01.968Z,53.90
2023-04-11T16:32:29.091Z,55.20
2023-04-11T16:34:57.753Z,55.70
2023-04-11T16:37:25.028Z,55.30
2023-04-11T16:39:52.222Z,56.90
2023-04-11T16:42:19.586Z,55.90
2023-04-11T16:44:46.645Z,57.70
2023-04-11T16:47:13.657Z,56.50
2023-04-11T16:49:40.870Z,58.50
2023-04-11T16:52:07.819Z,58.10
2023-04-11T16:54:34.821Z,59.00
2023-04-11T16:57:01.818Z,59.00
2023-04-11T16:59:28.854Z,58.20
2023-04-11T17:01:56.041Z,58.20
2023-04-11T17:04:23.234Z,58.50
2023-04-11T17:06:50.425Z,58.80
2023-04-11T17:09:17.604Z,58.80
2023-04-11T17:11:44.628Z,58.30
2023-04-11T17:14:11.686Z,58.80
2023-04-11T17:16:38.783Z,61.70
2023-04-11T17:19:06.297Z,60.60
2023-04-11T17:21:33.260Z,60.10
2023-04-11T17:24:00.587Z,60.90
2023-04-11T17:26:27.872Z,59.60
2023-04-11T17:28:55.166Z,60.50
2023-04-11T17:31:22.219Z,59.80
2023-04-11T17:33:49.352Z,59.40
2023-04-11T17:36:16.368Z,59.20
2023-04-11T17:38:43.628Z,60.90
2023-04-11T17:41:15.128Z,61.80
2023-04-11T17:43:43.706Z,61.10
2023-04-11T17:46:10.798Z,61.60
2023-04-11T17:48:37.888Z,62.20
2023-04-11T17:51:05.700Z,63.00
2023-04-11T17:53:33.413Z,61.70
2023-04-11T17:56:05.914Z,62.20
2023-04-11T17:58:33.542Z,63.10
2023-04-11T18:01:00.581Z,63.20
2023-04-11T18:03:28.340Z,63.60
2023-04-11T18:05:56.380Z,63.50
2023-04-11T18:08:36.111Z,62.80
2023-04-11T18:11:11.034Z,63.70
2023-04-11T18:13:38.050Z,63.60
2023-04-11T18:16:05.228Z,63.10
2023-04-11T18:18:32.245Z,63.00
2023-04-11T18:21:06.643Z,63.40
2023-04-11T18:23:34.574Z,63.70
2023-04-11T18:26:01.585Z,64.20
2023-04-11T18:28:28.794Z,64.40
2023-04-11T18:30:55.953Z,65.00
2023-04-11T18:33:23.219Z,65.20
2023-04-11T18:35:50.394Z,65.10
2023-04-11T18:38:17.797Z,65.40
2023-04-11T18:40:44.907Z,65.20
2023-04-11T18:43:12.480Z,65.30
2023-04-11T18:45:40.156Z,65.70
2023-04-11T18:48:08.405Z,66.00
2023-04-11T18:50:39.041Z,66.10
2023-04-11T18:53:09.976Z,66.30
2023-04-11T18:55:40.343Z,66.60
2023-04-11T18:58:09.090Z,66.70
2023-04-11T19:00:39.155Z,66.70
2023-04-11T19:03:15.024Z,67.00
2023-04-11T19:05:44.061Z,67.40
2023-04-11T19:08:11.253Z,67.60
2023-04-11T19:10:38.359Z,67.50
2023-04-11T19:13:06.349Z,67.80
2023-04-11T19:15:33.474Z,68.40
2023-04-11T19:18:00.863Z,68.00
2023-04-11T19:20:28.376Z,68.00
2023-04-11T19:22:55.410Z,68.10
2023-04-11T19:25:22.490Z,68.00
2023-04-11T19:27:51.171Z,68.60
2023-04-11T19:30:18.194Z,69.10
2023-04-11T19:32:47.599Z,69.40
2023-04-11T19:35:15.192Z,69.70
2023-04-11T19:37:42.808Z,69.40
2023-04-11T19:40:16.731Z,69.40
2023-04-11T19:42:44.899Z,69.50
2023-04-11T19:45:12.460Z,70.00
2023-04-11T19:47:40.992Z,70.60
2023-04-11T19:50:15.375Z,70.60
2023-04-11T19:52:43.741Z,71.50
2023-04-11T19:55:11.815Z,71.90
2023-04-11T19:57:39.140Z,71.60
2023-04-11T20:00:15.192Z,71.00
2023-04-11T20:02:47.881Z,70.90
2023-04-11T20:05:22.182Z,70.70
2023-04-11T20:07:49.593Z,70.60
2023-04-11T20:10:27.524Z,70.80
2023-04-11T20:12:58.361Z,71.20
2023-04-11T20:15:25.711Z,71.50
2023-04-11T20:17:52.839Z,71.80
2023-04-11T20:20:20.381Z,71.50
2023-04-11T20:22:50.586Z,71.50
2023-04-11T20:25:17.615Z,71.80
2023-04-11T20:27:44.770Z,72.00
2023-04-11T20:30:13.173Z,72.20
2023-04-11T20:32:41.435Z,72.00
2023-04-11T20:35:09.982Z,71.80
2023-04-11T20:37:37.375Z,71.60
2023-04-11T20:40:09.927Z,72.00
2023-04-11T20:42:45.874Z,72.20
2023-04-11T20:45:18.283Z,72.40
2023-04-11T20:47:46.800Z,72.70
2023-04-11T20:50:15.989Z,73.10
2023-04-11T20:52:51.041Z,73.10
2023-04-11T20:55:28.835Z,73.30
2023-04-11T20:58:10.333Z,73.10
2023-04-11T21:00:39.800Z,72.80
2023-04-11T21:03:07.993Z,73.00
2023-04-11T21:05:35.907Z,74.00
2023-04-11T21:08:03.998Z,73.90
2023-04-11T21:10:31.233Z,73.80
2023-04-11T21:13:27.383Z,74.00
2023-04-11T21:15:54.828Z,74.00
2023-04-11T21:18:22.383Z,74.10
2023-04-11T21:20:49.755Z,74.30
2023-04-11T21:23:17.216Z,74.40
2023-04-11T21:25:44.494Z,74.00
2023-04-11T21:28:12.058Z,73.90
2023-04-11T21:30:39.716Z,73.80
2023-04-11T21:33:06.794Z,74.10
2023-04-11T21:35:34.021Z,74.60
2023-04-11T21:38:01.058Z,74.80
2023-04-11T21:40:28.073Z,74.50
2023-04-11T21:42:55.674Z,74.30
2023-04-11T21:45:23.386Z,74.50
2023-04-11T21:47:51.431Z,74.90
2023-04-11T21:50:18.827Z,74.60
2023-04-11T21:52:46.500Z,74.40
2023-04-11T21:55:15.155Z,74.40
2023-04-11T21:57:42.229Z,74.40
2023-04-11T22:00:13.560Z,75.50
2023-04-11T22:02:41.417Z,75.50
2023-04-11T22:05:09.609Z,75.60
2023-04-11T22:07:48.728Z,75.40
2023-04-11T22:10:23.990Z,75.50
2023-04-11T22:12:54.430Z,75.20
2023-04-11T22:15:21.684Z,75.50
2023-04-11T22:17:51.102Z,75.80
2023-04-11T22:20:18.532Z,75.70
2023-04-11T22:22:45.534Z,75.80
2023-04-11T22:25:12.604Z,75.90
2023-04-11T22:27:39.675Z,76.20
2023-04-11T22:30:07.792Z,76.50
2023-04-11T22:32:34.902Z,76.70
2023-04-11T22:35:01.949Z,77.00
2023-04-11T22:37:29.000Z,76.60
2023-04-11T22:39:56.359Z,76.60
2023-04-11T22:42:23.324Z,76.60
2023-04-11T22:44:50.462Z,76.50
2023-04-11T22:47:21.895Z,76.60
2023-04-11T22:49:49.005Z,76.40
2023-04-11T22:52:19.065Z,76.20
2023-04-11T22:54:47.173Z,75.60
2023-04-11T22:57:21.745Z,75.70
2023-04-11T22:59:51.892Z,75.50
2023-04-11T23:02:24.969Z,74.80
2023-04-11T23:05:03.661Z,74.20
2023-04-11T23:07:37.154Z,73.90
2023-04-11T23:10:18.530Z,74.20
2023-04-11T23:12:51.591Z,73.20
2023-04-11T23:15:25.138Z,72.80
2023-04-11T23:17:55.646Z,72.70
2023-04-11T23:20:24.129Z,72.70
2023-04-11T23:22:57.802Z,72.50
2023-04-11T23:25:36.514Z,73.00
2023-04-11T23:28:10.046Z,73.50
2023-04-11T23:30:44.585Z,73.50
2023-04-11T23:33:24.322Z,73.70
2023-04-11T23:35:59.988Z,73.60
2023-04-11T23:38:39.944Z,73.60
2023-04-11T23:41:09.693Z,73.70
2023-04-11T23:43:39.060Z,73.50
2023-04-11T23:46:10.470Z,73.40
2023-04-11T23:48:39.161Z,73.50
2023-04-11T23:51:11.434Z,73.70
2023-04-11T23:53:40.575Z,73.70
2023-04-11T23:56:12.118Z,73.80
2023-04-11T23:58:44.645Z,73.80
